createdAt,value
2023-04-16T00:01:51.486Z,9.63
2023-04-16T00:04:18.756Z,10.20
2023-04-16T00:06:45.894Z,10.52
2023-04-16T00:09:12.863Z,9.18
2023-04-16T00:11:39.746Z,9.93
2023-04-16T00:14:06.550Z,10.38
2023-04-16T00:16:33.464Z,10.70
2023-04-16T00:19:00.324Z,11.02
2023-04-16T00:21:27.146Z,9.82
2023-04-16T00:23:54.744Z,10.52
2023-04-16T00:26:22.419Z,9.20
2023-04-16T00:28:50.497Z,11.85
2023-04-16T00:31:17.736Z,11.50
2023-04-16T00:33:44.779Z,14.35
2023-04-16T00:36:11.718Z,11.82
2023-04-16T00:38:38.697Z,12.25
2023-04-16T00:41:05.823Z,14.88
2023-04-16T00:43:32.740Z,11.93
2023-04-16T00:45:59.743Z,11.88
2023-04-16T00:48:28.269Z,12.30
2023-04-16T00:50:55.877Z,12.25
2023-04-16T00:53:22.853Z,13.20
2023-04-16T00:55:50.578Z,11.25
2023-04-16T00:58:17.848Z,11.07
2023-04-16T01:00:44.663Z,13.23
2023-04-16T01:03:11.731Z,10.80
2023-04-16T01:05:39.276Z,11.40
2023-04-16T01:08:06.601Z,10.00
2023-04-16T01:10:33.423Z,9.93
2023-04-16T01:13:00.470Z,10.52
2023-04-16T01:15:27.285Z,10.88
2023-04-16T01:17:54.543Z,9.68
2023-04-16T01:20:21.456Z,10.45
2023-04-16T01:22:48.781Z,9.20
2023-04-16T01:25:16.270Z,10.02
2023-04-16T01:27:43.147Z,10.23
2023-04-16T01:30:10.319Z,10.23
2023-04-16T01:32:48.205Z,9.52
2023-04-16T01:35:15.425Z,9.70
2023-04-16T01:37:42.276Z,9.57
2023-04-16T01:40:11.097Z,10.27
2023-04-16T01:42:38.576Z,8.55
2023-04-16T01:45:06.188Z,8.35
2023-04-16T01:47:33.096Z,7.80
2023-04-16T01:50:00.792Z,7.50
2023-04-16T01:52:27.629Z,7.45
2023-04-16T01:54:54.434Z,7.72
2023-04-16T01:57:21.283Z,7.80
2023-04-16T01:59:48.134Z,7.40
2023-04-16T02:02:16.982Z,7.43
2023-04-16T02:04:45.898Z,7.25
2023-04-16T02:07:12.993Z,7.28
2023-04-16T02:09:41.258Z,6.75
2023-04-16T02:12:09.620Z,8.07
2023-04-16T02:14:36.484Z,6.65
2023-04-16T02:17:03.718Z,6.95
2023-04-16T02:19:37.030Z,6.47
2023-04-16T02:22:04.238Z,6.80
2023-04-16T02:24:31.234Z,7.28
2023-04-16T02:26:59.886Z,7.32
2023-04-16T02:29:26.789Z,6.63
2023-04-16T02:32:00.889Z,6.75
2023-04-16T02:34:29.141Z,6.10
2023-04-16T02:36:58.369Z,7.07
2023-04-16T02:39:25.550Z,6.38
2023-04-16T02:41:53.373Z,7.25
2023-04-16T02:44:21.091Z,7.05
2023-04-16T02:46:48.364Z,7.57
2023-04-16T02:49:16.086Z,6.40
2023-04-16T02:51:42.876Z,6.90
2023-04-16T02:54:09.828Z,8.43
2023-04-16T02:56:36.693Z,6.40
2023-04-16T02:59:03.597Z,6.80
2023-04-16T03:01:30.552Z,8.52
2023-04-16T03:03:57.576Z,8.07
2023-04-16T03:06:24.458Z,8.30
2023-04-16T03:08:51.301Z,8.57
2023-04-16T03:11:18.191Z,9.55
2023-04-16T03:13:45.073Z,7.95
2023-04-16T03:16:12.053Z,8.02
2023-04-16T03:18:38.986Z,7.88
2023-04-16T03:21:06.271Z,8.02
2023-04-16T03:23:33.407Z,9.05
2023-04-16T03:26:00.348Z,8.65
2023-04-16T03:28:27.453Z,8.85
2023-04-16T03:30:54.550Z,10.15
2023-04-16T03:33:21.620Z,9.70
2023-04-16T03:35:56.143Z,10.52
2023-04-16T03:38:26.034Z,10.98
2023-04-16T03:40:55.299Z,15.57
2023-04-16T03:43:22.207Z,12.88
2023-04-16T03:45:49.355Z,12.88
2023-04-16T03:48:17.589Z,12.48
2023-04-16T03:50:48.124Z,14.25
2023-04-16T03:53:16.701Z,11.13
2023-04-16T03:55:43.885Z,12.95
2023-04-16T03:58:11.050Z,10.85
2023-04-16T04:00:41.170Z,11.55
2023-04-16T04:03:13.444Z,11.02
2023-04-16T04:05:41.313Z,11.45
2023-04-16T04:08:11.208Z,11.00
2023-04-16T04:10:38.242Z,12.63
2023-04-16T04:13:07.024Z,10.90
2023-04-16T04:15:34.875Z,10.02
2023-04-16T04:18:01.795Z,10.82
2023-04-16T04:20:28.813Z,14.75
2023-04-16T04:22:55.870Z,10.35
2023-04-16T04:25:25.457Z,12.10
2023-04-16T04:27:52.442Z,9.98
2023-04-16T04:30:19.471Z,10.57
2023-04-16T04:32:46.426Z,10.45
2023-04-16T04:35:15.500Z,10.32
2023-04-16T04:37:42.315Z,8.15
2023-04-16T04:40:14.528Z,8.57
2023-04-16T04:42:41.322Z,9.65
2023-04-16T04:45:10.145Z,10.02
2023-04-16T04:47:37.079Z,8.98
2023-04-16T04:50:04.258Z,8.07
2023-04-16T04:52:32.583Z,8.68
2023-04-16T04:55:00.718Z,10.70
2023-04-16T04:57:27.556Z,10.52
2023-04-16T04:59:55.432Z,10.75
2023-04-16T05:02:23.059Z,9.07
2023-04-16T05:04:50.017Z,10.15
2023-04-16T05:07:16.958Z,10.00
2023-04-16T05:09:43.733Z,11.20
2023-04-16T05:12:10.650Z,11.32
2023-04-16T05:14:37.557Z,11.45
2023-04-16T05:17:04.409Z,11.52
2023-04-16T05:19:31.550Z,12.45
2023-04-16T05:21:58.390Z,12.45
2023-04-16T05:24:25.443Z,11.68
2023-04-16T05:26:52.302Z,11.75
2023-04-16T05:29:19.134Z,14.50
2023-04-16T05:31:46.150Z,15.77
2023-04-16T05:34:12.973Z,18.50
2023-04-16T05:36:39.761Z,21.90
2023-04-16T05:39:07.745Z,22.13
2023-04-16T05:41:34.919Z,21.83
2023-04-16T05:44:01.757Z,27.88
2023-04-16T05:46:28.696Z,29.23
2023-04-16T05:48:55.544Z,24.48
2023-04-16T05:51:24.729Z,26.55
2023-04-16T05:53:51.581Z,25.85
2023-04-16T05:56:18.692Z,26.77
2023-04-16T05:58:45.773Z,25.90
2023-04-16T06:01:12.680Z,27.80
2023-04-16T06:03:39.565Z,28.98
2023-04-16T06:06:08.832Z,29.75
2023-04-16T06:08:35.695Z,31.08
2023-04-16T06:11:03.303Z,30.88
2023-04-16T06:13:30.117Z,31.20
2023-04-16T06:15:57.025Z,34.80
2023-04-16T06:18:24.030Z,32.55
2023-04-16T06:20:50.877Z,31.08
2023-04-16T06:23:17.729Z,30.27
2023-04-16T06:25:44.552Z,32.55
2023-04-16T06:28:11.388Z,31.42
2023-04-16T06:30:39.383Z,28.48
2023-04-16T06:33:06.280Z,32.38
2023-04-16T06:35:33.150Z,32.08
2023-04-16T06:37:59.979Z,34.63
2023-04-16T06:40:26.922Z,33.13
2023-04-16T06:42:54.202Z,37.38
2023-04-16T06:45:21.014Z,34.90
2023-04-16T06:47:48.115Z,43.40
2023-04-16T06:50:15.455Z,46.30
2023-04-16T06:52:42.334Z,40.55
2023-04-16T06:55:10.370Z,40.38
2023-04-16T06:57:37.764Z,42.33
2023-04-16T07:00:08.143Z,40.42
2023-04-16T07:02:35.535Z,43.53
2023-04-16T07:05:02.516Z,41.22
2023-04-16T07:07:29.307Z,43.25
2023-04-16T07:09:56.284Z,38.55
2023-04-16T07:12:23.233Z,36.10
2023-04-16T07:14:50.314Z,39.63
2023-04-16T07:17:17.112Z,43.03
2023-04-16T07:19:44.376Z,40.70
2023-04-16T07:22:11.189Z,37.47
2023-04-16T07:24:37.965Z,39.15
2023-04-16T07:27:04.910Z,34.65
2023-04-16T07:29:31.663Z,33.80
2023-04-16T07:31:58.577Z,34.55
2023-04-16T07:34:25.512Z,32.95
2023-04-16T07:36:52.236Z,34.72
2023-04-16T07:39:19.091Z,34.33
2023-04-16T07:41:45.959Z,32.20
2023-04-16T07:44:12.706Z,32.25
2023-04-16T07:46:46.830Z,30.70
2023-04-16T07:49:14.172Z,33.47
2023-04-16T07:51:41.099Z,29.02
2023-04-16T07:54:07.990Z,30.83
2023-04-16T07:56:34.847Z,29.05
2023-04-16T07:59:14.382Z,31.70
2023-04-16T08:01:46.084Z,26.88
2023-04-16T08:04:14.285Z,26.85
2023-04-16T08:06:41.239Z,30.15
2023-04-16T08:09:08.310Z,27.05
2023-04-16T08:11:35.324Z,29.45
2023-04-16T08:14:02.176Z,27.77
2023-04-16T08:16:29.000Z,26.30
2023-04-16T08:18:55.871Z,27.52
2023-04-16T08:21:22.734Z,29.40
2023-04-16T08:23:49.561Z,29.05
2023-04-16T08:26:17.481Z,29.58
2023-04-16T08:28:44.281Z,29.90
2023-04-16T08:31:11.322Z,26.77
2023-04-16T08:33:38.167Z,28.65
2023-04-16T08:36:05.554Z,24.20
2023-04-16T08:38:32.353Z,27.65
2023-04-16T08:41:05.700Z,26.30
2023-04-16T08:43:38.145Z,26.35
2023-04-16T08:46:09.021Z,25.00
2023-04-16T08:48:37.545Z,24.50
2023-04-16T08:51:09.443Z,28.02
2023-04-16T08:53:46.484Z,22.25
2023-04-16T08:56:14.638Z,22.65
2023-04-16T08:58:41.787Z,28.02
2023-04-16T09:01:10.500Z,23.20
2023-04-16T09:03:37.831Z,24.52
2023-04-16T09:06:06.448Z,23.45
2023-04-16T09:08:35.733Z,23.27
2023-04-16T09:11:03.500Z,22.23
2023-04-16T09:13:31.813Z,25.45
2023-04-16T09:15:59.751Z,23.33
2023-04-16T09:18:28.132Z,24.50
2023-04-16T09:20:56.399Z,22.98
2023-04-16T09:23:23.358Z,25.35
2023-04-16T09:25:50.202Z,24.70
2023-04-16T09:28:42.938Z,21.52
2023-04-16T09:31:17.177Z,25.08
2023-04-16T09:34:00.356Z,28.27
2023-04-16T09:36:27.862Z,23.65
2023-04-16T09:38:57.609Z,23.52
2023-04-16T09:41:27.282Z,26.17
2023-04-16T09:43:58.625Z,29.38
2023-04-16T09:46:35.166Z,25.38
2023-04-16T09:49:09.832Z,26.77
2023-04-16T09:51:38.001Z,23.42
2023-04-16T09:54:05.659Z,25.77
2023-04-16T09:56:32.551Z,23.98
2023-04-16T09:59:02.909Z,25.92
2023-04-16T10:01:30.936Z,27.63
2023-04-16T10:04:00.041Z,25.48
2023-04-16T10:06:29.455Z,27.60
2023-04-16T10:08:57.026Z,25.00
2023-04-16T10:11:24.789Z,28.98
2023-04-16T10:13:51.950Z,23.98
2023-04-16T10:16:19.014Z,25.15
2023-04-16T10:18:46.901Z,28.02
2023-04-16T10:21:15.363Z,27.25
2023-04-16T10:23:43.799Z,27.73
2023-04-16T10:26:10.821Z,23.88
2023-04-16T10:28:37.928Z,28.45
2023-04-16T10:31:08.160Z,27.00
2023-04-16T10:33:39.355Z,26.27
2023-04-16T10:36:23.517Z,29.70
2023-04-16T10:38:52.461Z,24.58
2023-04-16T10:41:22.501Z,27.50
2023-04-16T10:43:52.073Z,27.75
2023-04-16T10:46:24.333Z,25.00
2023-04-16T10:48:54.010Z,26.30
2023-04-16T10:51:28.577Z,26.80
2023-04-16T10:53:57.478Z,26.35
2023-04-16T10:56:31.455Z,24.30
2023-04-16T10:58:58.534Z,26.00
2023-04-16T11:01:33.993Z,21.52
2023-04-16T11:04:22.366Z,21.73
2023-04-16T11:07:14.382Z,23.20
2023-04-16T11:10:13.184Z,21.10
2023-04-16T11:12:47.277Z,24.60
2023-04-16T11:15:15.576Z,19.48
2023-04-16T11:17:50.632Z,21.63
2023-04-16T11:20:26.203Z,17.13
2023-04-16T11:22:55.016Z,18.23
2023-04-16T11:25:31.979Z,16.05
2023-04-16T11:27:59.195Z,16.73
2023-04-16T11:30:36.923Z,14.93
2023-04-16T11:33:05.438Z,16.95
2023-04-16T11:35:32.514Z,15.43
2023-04-16T11:37:59.359Z,13.98
2023-04-16T11:40:30.927Z,15.32
2023-04-16T11:43:03.784Z,15.52
2023-04-16T11:45:30.891Z,13.55
2023-04-16T11:47:58.008Z,15.18
2023-04-16T11:50:27.141Z,14.85
2023-04-16T11:52:56.129Z,16.50
2023-04-16T11:55:23.839Z,12.30
2023-04-16T11:57:52.192Z,13.40
2023-04-16T12:00:23.117Z,13.15
2023-04-16T12:02:54.481Z,11.50
2023-04-16T12:05:34.587Z,12.40
2023-04-16T12:08:07.083Z,12.25
2023-04-16T12:10:35.795Z,12.20
2023-04-16T12:13:16.356Z,11.93
2023-04-16T12:15:52.935Z,11.60
2023-04-16T12:18:22.522Z,11.00
2023-04-16T12:20:51.405Z,12.43
2023-04-16T12:23:29.017Z,12.73
2023-04-16T12:25:59.637Z,10.23
2023-04-16T12:28:32.283Z,10.65
2023-04-16T12:30:59.467Z,7.05
2023-04-16T12:33:26.377Z,6.88
2023-04-16T12:35:53.316Z,7.15
2023-04-16T12:38:22.194Z,5.72
2023-04-16T12:40:51.083Z,5.70
2023-04-16T12:43:18.188Z,5.43
2023-04-16T12:45:45.057Z,4.93
2023-04-16T12:48:11.978Z,5.65
2023-04-16T12:50:39.783Z,5.25
2023-04-16T12:53:06.781Z,3.92
2023-04-16T12:55:33.759Z,4.88
2023-04-16T12:58:01.008Z,3.88
2023-04-16T13:00:27.927Z,4.95
2023-04-16T13:02:54.907Z,3.80
2023-04-16T13:05:21.750Z,4.13
2023-04-16T13:07:48.766Z,5.15
2023-04-16T13:10:16.696Z,5.40
2023-04-16T13:12:43.677Z,4.95
2023-04-16T13:15:11.123Z,5.88
2023-04-16T13:17:37.977Z,4.57
2023-04-16T13:20:05.262Z,5.05
2023-04-16T13:22:32.162Z,5.82
2023-04-16T13:24:59.055Z,5.78
2023-04-16T13:27:26.192Z,6.47
2023-04-16T13:29:53.171Z,5.15
2023-04-16T13:32:20.075Z,5.30
2023-04-16T13:34:47.221Z,4.97
2023-04-16T13:37:14.248Z,6.72
2023-04-16T13:39:41.375Z,5.00
2023-04-16T13:42:08.316Z,5.30
2023-04-16T13:44:35.584Z,5.60
2023-04-16T13:47:02.467Z,4.60
2023-04-16T13:49:29.430Z,4.60
2023-04-16T13:51:56.331Z,5.40
2023-04-16T13:54:23.291Z,6.07
2023-04-16T13:56:51.173Z,5.57
2023-04-16T13:59:18.565Z,6.40
2023-04-16T14:01:45.504Z,5.60
2023-04-16T14:04:12.446Z,6.05
2023-04-16T14:06:39.259Z,6.68
2023-04-16T14:09:06.146Z,7.40
2023-04-16T14:11:32.953Z,8.35
2023-04-16T14:13:59.926Z,6.88
2023-04-16T14:16:27.470Z,6.72
2023-04-16T14:18:54.367Z,7.03
2023-04-16T14:21:21.282Z,13.10
2023-04-16T14:23:48.199Z,7.28
2023-04-16T14:26:15.042Z,8.32
2023-04-16T14:28:42.100Z,9.20
2023-04-16T14:31:08.992Z,8.95
2023-04-16T14:33:35.775Z,8.85
2023-04-16T14:36:03.511Z,10.93
2023-04-16T14:38:31.341Z,10.18
2023-04-16T14:40:58.360Z,11.05
2023-04-16T14:43:25.268Z,10.65
2023-04-16T14:45:52.771Z,10.52
2023-04-16T14:48:19.796Z,24.90
2023-04-16T14:50:46.797Z,14.80
2023-04-16T14:53:13.773Z,11.82
2023-04-16T14:55:40.792Z,13.68
2023-04-16T14:58:07.803Z,18.70
2023-04-16T15:00:35.731Z,16.35
2023-04-16T15:03:02.959Z,11.80
2023-04-16T15:05:31.565Z,11.98
2023-04-16T15:07:58.440Z,20.83
2023-04-16T15:10:25.293Z,17.88
2023-04-16T15:12:52.122Z,13.60
2023-04-16T15:15:18.937Z,14.35
2023-04-16T15:17:46.066Z,15.93
2023-04-16T15:20:13.457Z,27.10
2023-04-16T15:22:40.744Z,23.33
2023-04-16T15:25:08.191Z,20.52
2023-04-16T15:27:35.245Z,19.58
2023-04-16T15:30:02.399Z,18.58
2023-04-16T15:32:29.334Z,17.25
2023-04-16T15:34:56.195Z,19.83
2023-04-16T15:37:23.539Z,19.33
2023-04-16T15:39:50.486Z,18.67
2023-04-16T15:42:17.381Z,18.52
2023-04-16T15:44:44.200Z,19.70
2023-04-16T15:47:11.201Z,15.85
2023-04-16T15:49:38.035Z,16.35
2023-04-16T15:52:04.953Z,19.48
2023-04-16T15:54:32.089Z,17.25
2023-04-16T15:56:59.088Z,16.13
2023-04-16T15:59:26.789Z,23.15
2023-04-16T16:01:53.816Z,19.90
2023-04-16T16:04:23.172Z,20.83
2023-04-16T16:06:50.756Z,18.30
2023-04-16T16:09:18.526Z,17.10
2023-04-16T16:11:45.655Z,20.63
2023-04-16T16:14:14.912Z,16.23
2023-04-16T16:16:42.707Z,16.85
2023-04-16T16:19:09.920Z,17.42
2023-04-16T16:21:37.161Z,19.38
2023-04-16T16:24:04.417Z,19.17
2023-04-16T16:26:31.455Z,19.30
2023-04-16T16:28:58.316Z,17.67
2023-04-16T16:31:25.485Z,17.65
2023-04-16T16:33:52.473Z,16.30
2023-04-16T16:36:19.480Z,21.45
2023-04-16T16:38:47.406Z,24.38
2023-04-16T16:41:14.398Z,25.83
2023-04-16T16:43:41.394Z,26.92
2023-04-16T16:46:09.888Z,28.30
2023-04-16T16:48:36.897Z,26.27
2023-04-16T16:51:03.925Z,25.35
2023-04-16T16:53:30.844Z,27.00
2023-04-16T16:55:57.731Z,32.15
2023-04-16T16:58:24.650Z,31.80
2023-04-16T17:00:51.576Z,29.25
2023-04-16T17:03:18.649Z,28.60
2023-04-16T17:05:45.743Z,30.40
2023-04-16T17:08:13.821Z,28.70
2023-04-16T17:10:40.695Z,29.58
2023-04-16T17:13:07.602Z,33.33
2023-04-16T17:15:34.761Z,34.60
2023-04-16T17:18:01.688Z,35.17
2023-04-16T17:20:28.639Z,33.65
2023-04-16T17:22:55.793Z,32.35
2023-04-16T17:25:22.721Z,30.98
2023-04-16T17:27:49.593Z,33.63
2023-04-16T17:30:16.956Z,33.28
2023-04-16T17:32:44.076Z,36.20
2023-04-16T17:35:11.328Z,35.72
2023-04-16T17:37:38.395Z,38.78
2023-04-16T17:40:07.639Z,38.33
2023-04-16T17:42:35.796Z,34.78
2023-04-16T17:45:03.600Z,34.65
2023-04-16T17:47:30.592Z,35.78
2023-04-16T17:49:57.712Z,38.55
2023-04-16T17:52:24.696Z,42.13
2023-04-16T17:54:53.229Z,42.75
2023-04-16T17:57:20.078Z,42.60
2023-04-16T17:59:47.016Z,43.00
2023-04-16T18:02:14.053Z,40.17
2023-04-16T18:04:41.330Z,49.67
2023-04-16T18:07:08.383Z,44.25
2023-04-16T18:09:35.821Z,43.75
2023-04-16T18:12:03.012Z,45.13
2023-04-16T18:14:29.984Z,39.45
2023-04-16T18:16:58.252Z,51.53
2023-04-16T18:19:25.226Z,37.90
2023-04-16T18:21:52.195Z,40.05
2023-04-16T18:24:19.114Z,38.17
2023-04-16T18:26:47.027Z,38.55
2023-04-16T18:29:14.516Z,38.40
2023-04-16T18:31:42.424Z,36.25
2023-04-16T18:34:09.891Z,32.65
2023-04-16T18:36:36.954Z,37.70
2023-04-16T18:39:04.038Z,34.85
2023-04-16T18:41:31.407Z,35.35
2023-04-16T18:43:58.670Z,35.10
2023-04-16T18:46:26.837Z,30.42
2023-04-16T18:48:56.156Z,32.75
2023-04-16T18:51:23.364Z,33.83
2023-04-16T18:53:50.756Z,31.23
2023-04-16T18:56:17.704Z,34.40
2023-04-16T18:58:44.637Z,33.45
2023-04-16T19:01:14.635Z,36.75
2023-04-16T19:03:41.704Z,34.28
2023-04-16T19:06:08.751Z,33.30
2023-04-16T19:08:37.970Z,33.92
2023-04-16T19:11:05.143Z,31.63
2023-04-16T19:13:32.406Z,28.25
2023-04-16T19:16:00.577Z,31.27
2023-04-16T19:18:27.598Z,35.20
2023-04-16T19:21:01.673Z,29.80
2023-04-16T19:23:29.175Z,30.52
2023-04-16T19:25:57.068Z,30.40
2023-04-16T19:28:27.354Z,35.47
2023-04-16T19:30:54.436Z,32.70
2023-04-16T19:33:21.359Z,28.45
2023-04-16T19:35:48.319Z,31.15
2023-04-16T19:38:15.622Z,31.85
2023-04-16T19:40:46.860Z,25.00
2023-04-16T19:43:14.371Z,27.58
2023-04-16T19:45:46.167Z,27.30
2023-04-16T19:48:13.488Z,25.75
2023-04-16T19:50:41.763Z,26.27
2023-04-16T19:53:09.167Z,31.10
2023-04-16T19:55:36.621Z,26.73
2023-04-16T19:58:06.516Z,27.75
2023-04-16T20:00:38.691Z,26.40
2023-04-16T20:03:06.468Z,29.80
2023-04-16T20:05:33.515Z,31.98
2023-04-16T20:08:03.246Z,30.55
2023-04-16T20:10:31.607Z,28.40
2023-04-16T20:12:58.881Z,27.13
2023-04-16T20:15:28.907Z,28.15
2023-04-16T20:17:56.465Z,26.73
2023-04-16T20:20:23.750Z,29.58
2023-04-16T20:22:50.905Z,26.08
2023-04-16T20:25:20.726Z,29.00
2023-04-16T20:27:47.944Z,28.10
2023-04-16T20:30:15.034Z,28.02
2023-04-16T20:32:42.218Z,32.15
2023-04-16T20:35:11.366Z,29.17
2023-04-16T20:37:38.884Z,25.83
2023-04-16T20:40:08.717Z,25.65
2023-04-16T20:42:35.892Z,26.35
2023-04-16T20:45:02.826Z,25.45
2023-04-16T20:47:29.698Z,25.10
2023-04-16T20:49:56.523Z,25.80
2023-04-16T20:52:23.295Z,25.50
2023-04-16T20:54:52.237Z,26.48
2023-04-16T20:57:19.319Z,23.95
2023-04-16T20:59:46.161Z,23.25
2023-04-16T21:02:13.193Z,24.35
2023-04-16T21:04:40.530Z,25.05
2023-04-16T21:07:07.644Z,24.48
2023-04-16T21:09:34.456Z,25.88
2023-04-16T21:12:01.765Z,26.85
2023-04-16T21:14:28.596Z,24.63
2023-04-16T21:16:55.529Z,26.40
2023-04-16T21:19:22.515Z,27.05
2023-04-16T21:21:49.369Z,27.77
2023-04-16T21:24:16.143Z,26.80
2023-04-16T21:26:42.950Z,27.13
2023-04-16T21:29:09.954Z,29.77
2023-04-16T21:31:36.966Z,24.90
2023-04-16T21:34:03.849Z,26.40
2023-04-16T21:36:32.052Z,22.70
2023-04-16T21:38:58.946Z,24.45
2023-04-16T21:41:26.508Z,25.17
2023-04-16T21:43:53.441Z,24.52
2023-04-16T21:46:20.955Z,21.50
2023-04-16T21:48:48.499Z,28.60
2023-04-16T21:51:15.764Z,30.23
2023-04-16T21:53:42.649Z,21.08
2023-04-16T21:56:09.477Z,22.85
2023-04-16T21:58:36.319Z,21.02
2023-04-16T22:01:03.203Z,23.30
2023-04-16T22:03:30.489Z,23.23
2023-04-16T22:06:00.815Z,19.95
2023-04-16T22:08:31.043Z,23.13
2023-04-16T22:11:03.008Z,23.88
2023-04-16T22:13:33.876Z,25.13
2023-04-16T22:16:03.851Z,23.30
2023-04-16T22:18:33.883Z,24.95
2023-04-16T22:21:01.407Z,26.52
2023-04-16T22:23:28.211Z,24.38
2023-04-16T22:25:56.119Z,28.38
2023-04-16T22:28:23.754Z,26.83
2023-04-16T22:30:51.081Z,26.33
2023-04-16T22:33:18.016Z,34.95
2023-04-16T22:35:44.834Z,27.10
2023-04-16T22:38:11.720Z,30.27
2023-04-16T22:40:38.648Z,28.50
2023-04-16T22:43:05.757Z,27.73
2023-04-16T22:45:32.898Z,28.70
2023-04-16T22:47:59.756Z,28.08
2023-04-16T22:50:27.135Z,25.63
2023-04-16T22:52:53.918Z,29.73
2023-04-16T22:55:20.807Z,29.40
2023-04-16T22:57:47.668Z,28.67
2023-04-16T23:00:16.198Z,28.67
2023-04-16T23:02:43.458Z,26.73
2023-04-16T23:05:10.880Z,24.63
2023-04-16T23:07:37.740Z,25.63
2023-04-16T23:10:04.797Z,25.35
2023-04-16T23:12:31.726Z,29.77
2023-04-16T23:15:00.540Z,26.02
2023-04-16T23:17:28.077Z,25.25
2023-04-16T23:19:55.036Z,26.73
2023-04-16T23:22:21.980Z,24.17
2023-04-16T23:24:48.863Z,27.80
2023-04-16T23:27:15.727Z,25.95
2023-04-16T23:29:42.509Z,26.98
2023-04-16T23:32:09.270Z,26.80
2023-04-16T23:34:36.159Z,30.10
2023-04-16T23:37:03.063Z,24.02
2023-04-16T23:39:29.912Z,28.13
2023-04-16T23:41:57.536Z,27.65
2023-04-16T23:44:24.442Z,27.98
2023-04-16T23:46:51.299Z,29.33
2023-04-16T23:49:18.165Z,26.75
2023-04-16T23:51:44.996Z,26.63
2023-04-16T23:54:32.411Z,26.80
2023-04-16T23:56:59.210Z,26.70
2023-04-16T23:59:26.001Z,24.73
